sensor_id;sensor_type;location;lat;lon;timestamp;pressure;altitude;pressure_sealevel;temperature;humidity
41044;BME280;51680;49.806;18.774;2024-03-07T00:02:11;97711.44;;;3.96;100.00
41044;BME280;51680;49.806;18.774;2024-03-07T00:05:14;97722.19;;;4.08;100.00
41044;BME280;51680;49.806;18.774;2024-03-07T00:08:17;97710.75;;;4.15;100.00
41044;BME280;51680;49.806;18.774;2024-03-07T00:11:19;97701.31;;;4.14;99.10
41044;BME280;51680;49.806;18.774;2024-03-07T00:14:21;97709.66;;;4.22;98.50
41044;BME280;51680;49.806;18.774;2024-03-07T00:17:27;97727.00;;;3.93;98.14
41044;BME280;51680;49.806;18.774;2024-03-07T00:20:29;97711.56;;;4.17;98.32
41044;BME280;51680;49.806;18.774;2024-03-07T00:23:32;97713.84;;;4.26;97.63
41044;BME280;51680;49.806;18.774;2024-03-07T00:26:34;97720.13;;;4.18;97.29
41044;BME280;51680;49.806;18.774;2024-03-07T00:29:36;97720.63;;;4.29;96.63
41044;BME280;51680;49.806;18.774;2024-03-07T00:32:38;97715.69;;;4.21;96.58
41044;BME280;51680;49.806;18.774;2024-03-07T00:35:40;97714.81;;;4.22;96.85
41044;BME280;51680;49.806;18.774;2024-03-07T00:38:45;97715.88;;;4.17;96.77
41044;BME280;51680;49.806;18.774;2024-03-07T00:41:47;97723.34;;;4.24;96.91
41044;BME280;51680;49.806;18.774;2024-03-07T00:44:49;97708.31;;;4.35;96.14
41044;BME280;51680;49.806;18.774;2024-03-07T00:47:51;97708.31;;;4.35;95.56
41044;BME280;51680;49.806;18.774;2024-03-07T00:50:53;97700.56;;;4.35;95.71
41044;BME280;51680;49.806;18.774;2024-03-07T00:53:56;97702.28;;;4.36;96.22
41044;BME280;51680;49.806;18.774;2024-03-07T00:56:58;97707.09;;;4.45;95.40
41044;BME280;51680;49.806;18.774;2024-03-07T01:00:00;97705.00;;;4.56;95.25
41044;BME280;51680;49.806;18.774;2024-03-07T01:03:02;97703.94;;;4.62;94.57
41044;BME280;51680;49.806;18.774;2024-03-07T01:06:04;97705.06;;;4.55;95.12
41044;BME280;51680;49.806;18.774;2024-03-07T01:09:07;97697.88;;;4.63;94.83
41044;BME280;51680;49.806;18.774;2024-03-07T01:12:14;97702.97;;;4.64;94.65
41044;BME280;51680;49.806;18.774;2024-03-07T01:15:16;97703.41;;;4.77;94.44
41044;BME280;51680;49.806;18.774;2024-03-07T01:18:18;97699.19;;;4.74;94.50
41044;BME280;51680;49.806;18.774;2024-03-07T01:21:20;97693.94;;;4.76;94.02
41044;BME280;51680;49.806;18.774;2024-03-07T01:24:23;97688.72;;;4.77;93.84
41044;BME280;51680;49.806;18.774;2024-03-07T01:27:25;97681.53;;;4.62;94.52
41044;BME280;51680;49.806;18.774;2024-03-07T01:30:27;97695.63;;;4.54;94.82
41044;BME280;51680;49.806;18.774;2024-03-07T01:33:29;97687.16;;;4.50;94.99
41044;BME280;51680;49.806;18.774;2024-03-07T01:36:31;97691.72;;;4.18;95.94
41044;BME280;51680;49.806;18.774;2024-03-07T01:39:34;97695.22;;;4.41;95.23
41044;BME280;51680;49.806;18.774;2024-03-07T01:42:36;97690.03;;;4.41;95.06
41044;BME280;51680;49.806;18.774;2024-03-07T01:45:38;97696.69;;;4.48;94.52
41044;BME280;51680;49.806;18.774;2024-03-07T01:48:40;97692.13;;;4.30;95.00
41044;BME280;51680;49.806;18.774;2024-03-07T01:51:42;97696.91;;;4.42;94.52
41044;BME280;51680;49.806;18.774;2024-03-07T01:54:47;97686.34;;;4.48;94.36
41044;BME280;51680;49.806;18.774;2024-03-07T01:57:49;97688.16;;;4.46;94.68
41044;BME280;51680;49.806;18.774;2024-03-07T02:00:52;97686.88;;;4.58;94.17
41044;BME280;51680;49.806;18.774;2024-03-07T02:03:54;97683.34;;;4.60;93.67
41044;BME280;51680;49.806;18.774;2024-03-07T02:06:56;97691.28;;;4.54;93.43
41044;BME280;51680;49.806;18.774;2024-03-07T02:10:02;97680.84;;;4.57;93.53
41044;BME280;51680;49.806;18.774;2024-03-07T02:13:04;97675.63;;;4.59;93.25
41044;BME280;51680;49.806;18.774;2024-03-07T02:16:06;97664.91;;;4.69;92.84
41044;BME280;51680;49.806;18.774;2024-03-07T02:19:10;97669.22;;;4.69;92.72
41044;BME280;51680;49.806;18.774;2024-03-07T02:22:16;97675.13;;;4.72;92.38
41044;BME280;51680;49.806;18.774;2024-03-07T02:25:18;97675.78;;;4.77;92.02
41044;BME280;51680;49.806;18.774;2024-03-07T02:28:20;97666.94;;;4.84;92.20
41044;BME280;51680;49.806;18.774;2024-03-07T02:31:22;97683.31;;;4.83;91.91
41044;BME280;51680;49.806;18.774;2024-03-07T02:34:35;97680.19;;;4.75;92.38
41044;BME280;51680;49.806;18.774;2024-03-07T02:37:38;97670.34;;;4.85;91.60
41044;BME280;51680;49.806;18.774;2024-03-07T02:40:40;97674.44;;;4.90;92.18
41044;BME280;51680;49.806;18.774;2024-03-07T02:43:42;97664.22;;;4.87;91.82
41044;BME280;51680;49.806;18.774;2024-03-07T02:47:03;97671.44;;;4.79;92.70
41044;BME280;51680;49.806;18.774;2024-03-07T02:50:05;97671.53;;;4.76;93.07
41044;BME280;51680;49.806;18.774;2024-03-07T02:53:09;97665.44;;;4.77;92.66
41044;BME280;51680;49.806;18.774;2024-03-07T02:56:11;97660.94;;;4.82;93.20
41044;BME280;51680;49.806;18.774;2024-03-07T02:59:13;97667.94;;;4.80;93.25
41044;BME280;51680;49.806;18.774;2024-03-07T03:02:15;97662.25;;;4.71;92.51
41044;BME280;51680;49.806;18.774;2024-03-07T03:05:18;97675.25;;;4.69;92.67
41044;BME280;51680;49.806;18.774;2024-03-07T03:08:21;97677.84;;;4.69;92.56
41044;BME280;51680;49.806;18.774;2024-03-07T03:11:25;97669.28;;;4.67;92.46
41044;BME280;51680;49.806;18.774;2024-03-07T03:14:27;97669.38;;;4.64;92.64
41044;BME280;51680;49.806;18.774;2024-03-07T03:17:29;97680.44;;;4.45;93.58
41044;BME280;51680;49.806;18.774;2024-03-07T03:20:31;97677.06;;;4.43;93.40
41044;BME280;51680;49.806;18.774;2024-03-07T03:23:36;97679.59;;;4.44;93.11
41044;BME280;51680;49.806;18.774;2024-03-07T03:26:38;97669.47;;;4.38;92.74
41044;BME280;51680;49.806;18.774;2024-03-07T03:29:40;97671.28;;;4.36;93.39
41044;BME280;51680;49.806;18.774;2024-03-07T03:32:44;97664.41;;;4.35;93.70
41044;BME280;51680;49.806;18.774;2024-03-07T03:35:47;97658.41;;;4.35;93.58
41044;BME280;51680;49.806;18.774;2024-03-07T03:38:50;97666.94;;;4.37;93.93
41044;BME280;51680;49.806;18.774;2024-03-07T03:41:52;97660.81;;;4.39;93.22
41044;BME280;51680;49.806;18.774;2024-03-07T03:44:54;97658.34;;;4.36;93.75
41044;BME280;51680;49.806;18.774;2024-03-07T03:47:56;97667.75;;;4.39;93.48
41044;BME280;51680;49.806;18.774;2024-03-07T03:50:57;97657.41;;;4.39;93.45
41044;BME280;51680;49.806;18.774;2024-03-07T03:54:01;97661.00;;;4.35;93.78
41044;BME280;51680;49.806;18.774;2024-03-07T03:57:03;97649.25;;;4.26;93.79
41044;BME280;51680;49.806;18.774;2024-03-07T04:00:07;97661.44;;;4.21;94.13
41044;BME280;51680;49.806;18.774;2024-03-07T04:03:13;97673.34;;;4.02;95.25
41044;BME280;51680;49.806;18.774;2024-03-07T04:06:15;97669.16;;;3.98;96.07
41044;BME280;51680;49.806;18.774;2024-03-07T04:09:18;97678.72;;;3.70;96.79
41044;BME280;51680;49.806;18.774;2024-03-07T04:12:20;97684.59;;;3.74;98.00
41044;BME280;51680;49.806;18.774;2024-03-07T04:15:22;97685.34;;;3.77;97.53
41044;BME280;51680;49.806;18.774;2024-03-07T04:18:27;97671.53;;;3.78;97.60
41044;BME280;51680;49.806;18.774;2024-03-07T04:21:29;97676.78;;;3.77;97.34
41044;BME280;51680;49.806;18.774;2024-03-07T04:24:32;97674.28;;;3.74;96.82
41044;BME280;51680;49.806;18.774;2024-03-07T04:27:34;97678.97;;;3.87;96.49
41044;BME280;51680;49.806;18.774;2024-03-07T04:30:37;97686.63;;;3.90;96.09
41044;BME280;51680;49.806;18.774;2024-03-07T04:33:39;97673.78;;;3.89;96.35
41044;BME280;51680;49.806;18.774;2024-03-07T04:36:41;97665.81;;;3.95;95.48
41044;BME280;51680;49.806;18.774;2024-03-07T04:39:45;97666.41;;;4.03;95.02
41044;BME280;51680;49.806;18.774;2024-03-07T04:42:48;97670.63;;;4.05;95.05
41044;BME280;51680;49.806;18.774;2024-03-07T04:45:50;97662.84;;;4.07;94.80
41044;BME280;51680;49.806;18.774;2024-03-07T04:48:52;97664.53;;;4.08;94.70
41044;BME280;51680;49.806;18.774;2024-03-07T04:51:54;97663.56;;;4.10;94.35
41044;BME280;51680;49.806;18.774;2024-03-07T04:54:58;97669.69;;;4.08;94.81
41044;BME280;51680;49.806;18.774;2024-03-07T04:58:00;97673.06;;;4.10;94.69
41044;BME280;51680;49.806;18.774;2024-03-07T05:01:02;97668.50;;;4.16;94.51
41044;BME280;51680;49.806;18.774;2024-03-07T05:04:04;97660.69;;;4.19;94.62
41044;BME280;51680;49.806;18.774;2024-03-07T05:07:06;97680.06;;;4.06;95.01
41044;BME280;51680;49.806;18.774;2024-03-07T05:10:10;97681.59;;;4.12;94.92
41044;BME280;51680;49.806;18.774;2024-03-07T05:13:12;97677.38;;;4.09;95.31
41044;BME280;51680;49.806;18.774;2024-03-07T05:16:14;97679.19;;;4.07;95.93
41044;BME280;51680;49.806;18.774;2024-03-07T05:19:16;97687.34;;;3.95;96.75
41044;BME280;51680;49.806;18.774;2024-03-07T05:22:18;97693.09;;;4.03;96.24
41044;BME280;51680;49.806;18.774;2024-03-07T05:25:24;97685.22;;;4.06;96.50
41044;BME280;51680;49.806;18.774;2024-03-07T05:28:26;97673.91;;;4.10;95.82
41044;BME280;51680;49.806;18.774;2024-03-07T05:31:28;97691.28;;;4.05;95.52
41044;BME280;51680;49.806;18.774;2024-03-07T05:34:30;97683.66;;;4.02;95.51
41044;BME280;51680;49.806;18.774;2024-03-07T05:37:34;97690.50;;;4.03;95.81
41044;BME280;51680;49.806;18.774;2024-03-07T05:40:37;97705.38;;;3.97;96.18
41044;BME280;51680;49.806;18.774;2024-03-07T05:43:39;97696.75;;;3.96;96.04
41044;BME280;51680;49.806;18.774;2024-03-07T05:46:42;97706.00;;;3.77;96.03
41044;BME280;51680;49.806;18.774;2024-03-07T05:49:49;97697.19;;;3.84;96.61
41044;BME280;51680;49.806;18.774;2024-03-07T05:52:51;97708.38;;;3.57;95.76
41044;BME280;51680;49.806;18.774;2024-03-07T05:55:54;97701.34;;;3.62;96.96
41044;BME280;51680;49.806;18.774;2024-03-07T05:58:56;97702.22;;;3.61;97.28
41044;BME280;51680;49.806;18.774;2024-03-07T06:01:58;97730.91;;;3.52;96.33
41044;BME280;51680;49.806;18.774;2024-03-07T06:05:00;97703.09;;;3.62;96.23
41044;BME280;51680;49.806;18.774;2024-03-07T06:08:10;97697.31;;;3.54;95.54
41044;BME280;51680;49.806;18.774;2024-03-07T06:11:13;97713.41;;;3.62;95.73
41044;BME280;51680;49.806;18.774;2024-03-07T06:14:20;97716.28;;;3.53;95.94
41044;BME280;51680;49.806;18.774;2024-03-07T06:17:23;97715.09;;;3.63;95.75
41044;BME280;51680;49.806;18.774;2024-03-07T06:20:25;97713.81;;;3.48;95.49
41044;BME280;51680;49.806;18.774;2024-03-07T06:23:27;97734.06;;;3.33;96.44
41044;BME280;51680;49.806;18.774;2024-03-07T06:26:32;97730.47;;;3.38;97.28
41044;BME280;51680;49.806;18.774;2024-03-07T06:29:46;97727.72;;;3.15;98.76
41044;BME280;51680;49.806;18.774;2024-03-07T06:32:51;97737.31;;;2.81;99.84
41044;BME280;51680;49.806;18.774;2024-03-07T06:35:53;97743.16;;;2.88;100.00
41044;BME280;51680;49.806;18.774;2024-03-07T06:38:57;97740.72;;;3.12;99.89
41044;BME280;51680;49.806;18.774;2024-03-07T06:42:00;97722.50;;;3.18;98.85
41044;BME280;51680;49.806;18.774;2024-03-07T06:45:02;97733.25;;;3.32;98.42
41044;BME280;51680;49.806;18.774;2024-03-07T06:48:05;97731.38;;;3.37;97.29
41044;BME280;51680;49.806;18.774;2024-03-07T06:51:08;97742.59;;;3.36;97.37
41044;BME280;51680;49.806;18.774;2024-03-07T06:54:10;97745.84;;;3.43;96.58
41044;BME280;51680;49.806;18.774;2024-03-07T06:57:17;97741.38;;;3.48;96.33
41044;BME280;51680;49.806;18.774;2024-03-07T07:00:20;97740.75;;;3.40;96.42
41044;BME280;51680;49.806;18.774;2024-03-07T07:03:22;97748.34;;;3.44;95.72
41044;BME280;51680;49.806;18.774;2024-03-07T07:06:24;97759.31;;;3.51;95.30
41044;BME280;51680;49.806;18.774;2024-03-07T07:09:28;97761.00;;;3.52;94.85
41044;BME280;51680;49.806;18.774;2024-03-07T07:12:31;97754.81;;;3.57;94.67
41044;BME280;51680;49.806;18.774;2024-03-07T07:15:33;97750.81;;;3.49;94.28
41044;BME280;51680;49.806;18.774;2024-03-07T07:18:37;97749.03;;;3.49;94.46
41044;BME280;51680;49.806;18.774;2024-03-07T07:21:57;97755.97;;;3.49;95.10
41044;BME280;51680;49.806;18.774;2024-03-07T07:24:59;97760.19;;;3.51;95.26
41044;BME280;51680;49.806;18.774;2024-03-07T07:28:03;97754.63;;;3.36;95.30
41044;BME280;51680;49.806;18.774;2024-03-07T07:31:05;97750.84;;;3.47;95.40
41044;BME280;51680;49.806;18.774;2024-03-07T07:34:07;97754.03;;;3.55;94.32
41044;BME280;51680;49.806;18.774;2024-03-07T07:37:09;97754.16;;;3.51;94.27
41044;BME280;51680;49.806;18.774;2024-03-07T07:40:12;97758.38;;;3.53;93.83
41044;BME280;51680;49.806;18.774;2024-03-07T07:43:17;97752.94;;;3.62;93.66
41044;BME280;51680;49.806;18.774;2024-03-07T07:46:20;97758.38;;;3.53;93.93
41044;BME280;51680;49.806;18.774;2024-03-07T07:49:22;97762.59;;;3.56;93.75
41044;BME280;51680;49.806;18.774;2024-03-07T07:52:24;97758.03;;;3.65;93.48
41044;BME280;51680;49.806;18.774;2024-03-07T07:55:27;97762.19;;;3.69;92.94
41044;BME280;51680;49.806;18.774;2024-03-07T07:58:30;97763.28;;;3.62;93.17
41044;BME280;51680;49.806;18.774;2024-03-07T08:01:33;97756.97;;;3.71;93.32
41044;BME280;51680;49.806;18.774;2024-03-07T08:04:35;97764.88;;;3.66;93.69
41044;BME280;51680;49.806;18.774;2024-03-07T08:07:37;97757.56;;;3.53;93.42
41044;BME280;51680;49.806;18.774;2024-03-07T08:10:40;97767.22;;;3.17;94.02
41044;BME280;51680;49.806;18.774;2024-03-07T08:13:44;97775.31;;;3.05;94.08
41044;BME280;51680;49.806;18.774;2024-03-07T08:16:48;97777.69;;;3.11;94.10
41044;BME280;51680;49.806;18.774;2024-03-07T08:19:51;97785.41;;;3.13;94.34
41044;BME280;51680;49.806;18.774;2024-03-07T08:22:53;97781.09;;;3.13;94.75
41044;BME280;51680;49.806;18.774;2024-03-07T08:25:56;97785.03;;;2.96;93.95
41044;BME280;51680;49.806;18.774;2024-03-07T08:29:18;97787.91;;;2.85;96.38
41044;BME280;51680;49.806;18.774;2024-03-07T08:32:20;97799.34;;;3.07;95.98
41044;BME280;51680;49.806;18.774;2024-03-07T08:35:23;97792.13;;;3.18;94.83
41044;BME280;51680;49.806;18.774;2024-03-07T08:38:25;97807.94;;;2.76;95.60
41044;BME280;51680;49.806;18.774;2024-03-07T08:41:27;97810.66;;;2.38;97.23
41044;BME280;51680;49.806;18.774;2024-03-07T08:44:31;97812.09;;;2.49;98.47
41044;BME280;51680;49.806;18.774;2024-03-07T08:47:34;97827.88;;;2.36;99.57
41044;BME280;51680;49.806;18.774;2024-03-07T08:50:36;97807.56;;;2.25;100.00
41044;BME280;51680;49.806;18.774;2024-03-07T08:53:38;97804.97;;;2.57;100.00
41044;BME280;51680;49.806;18.774;2024-03-07T08:56:40;97803.84;;;2.67;99.14
41044;BME280;51680;49.806;18.774;2024-03-07T08:59:44;97813.03;;;2.45;99.02
41044;BME280;51680;49.806;18.774;2024-03-07T09:02:46;97812.56;;;2.30;99.57
41044;BME280;51680;49.806;18.774;2024-03-07T09:05:48;97830.78;;;2.56;100.00
41044;BME280;51680;49.806;18.774;2024-03-07T09:08:51;97811.69;;;2.64;99.09
41044;BME280;51680;49.806;18.774;2024-03-07T09:11:53;97814.56;;;2.84;97.99
41044;BME280;51680;49.806;18.774;2024-03-07T09:14:56;97813.56;;;2.90;97.21
41044;BME280;51680;49.806;18.774;2024-03-07T09:17:58;97816.78;;;2.98;96.59
41044;BME280;51680;49.806;18.774;2024-03-07T09:21:01;97825.13;;;3.07;95.93
41044;BME280;51680;49.806;18.774;2024-03-07T09:24:03;97819.88;;;3.09;95.69
41044;BME280;51680;49.806;18.774;2024-03-07T09:27:05;97823.00;;;3.21;95.75
41044;BME280;51680;49.806;18.774;2024-03-07T09:30:27;97818.81;;;3.17;95.31
41044;BME280;51680;49.806;18.774;2024-03-07T09:33:31;97824.75;;;3.19;95.28
41044;BME280;51680;49.806;18.774;2024-03-07T09:36:32;97828.22;;;3.18;95.24
41044;BME280;51680;49.806;18.774;2024-03-07T09:39:35;97830.63;;;3.24;94.70
41044;BME280;51680;49.806;18.774;2024-03-07T09:42:42;97832.53;;;3.18;95.12
41044;BME280;51680;49.806;18.774;2024-03-07T09:45:47;97831.53;;;3.23;94.89
41044;BME280;51680;49.806;18.774;2024-03-07T09:48:49;97833.00;;;3.01;94.92
41044;BME280;51680;49.806;18.774;2024-03-07T09:51:55;97836.81;;;3.19;95.04
41044;BME280;51680;49.806;18.774;2024-03-07T09:54:58;97833.72;;;3.06;94.68
41044;BME280;51680;49.806;18.774;2024-03-07T09:58:00;97831.31;;;3.00;95.66
41044;BME280;51680;49.806;18.774;2024-03-07T10:01:05;97836.94;;;3.14;95.21
41044;BME280;51680;49.806;18.774;2024-03-07T10:04:13;97827.25;;;3.22;94.24
41044;BME280;51680;49.806;18.774;2024-03-07T10:07:15;97834.09;;;3.23;93.77
41044;BME280;51680;49.806;18.774;2024-03-07T10:10:17;97834.09;;;3.23;93.47
41044;BME280;51680;49.806;18.774;2024-03-07T10:13:19;97835.00;;;3.22;93.24
41044;BME280;51680;49.806;18.774;2024-03-07T10:16:24;97830.63;;;3.24;93.49
41044;BME280;51680;49.806;18.774;2024-03-07T10:19:28;97833.22;;;3.24;93.02
41044;BME280;51680;49.806;18.774;2024-03-07T10:22:31;97833.84;;;3.32;93.15
41044;BME280;51680;49.806;18.774;2024-03-07T10:25:33;97836.59;;;3.26;92.92
41044;BME280;51680;49.806;18.774;2024-03-07T10:28:35;97840.59;;;3.38;92.71
41044;BME280;51680;49.806;18.774;2024-03-07T10:31:58;97840.22;;;3.50;92.81
41044;BME280;51680;49.806;18.774;2024-03-07T10:35:00;97839.47;;;3.46;92.52
41044;BME280;51680;49.806;18.774;2024-03-07T10:38:04;97838.03;;;3.36;91.90
41044;BME280;51680;49.806;18.774;2024-03-07T10:41:08;97843.28;;;3.33;92.41
41044;BME280;51680;49.806;18.774;2024-03-07T10:44:11;97836.44;;;3.32;92.05
41044;BME280;51680;49.806;18.774;2024-03-07T10:47:20;97840.94;;;3.24;92.19
41044;BME280;51680;49.806;18.774;2024-03-07T10:50:37;97849.44;;;3.28;92.43
41044;BME280;51680;49.806;18.774;2024-03-07T10:53:47;97840.97;;;3.23;92.83
41044;BME280;51680;49.806;18.774;2024-03-07T10:57:00;97841.88;;;3.22;92.21
41044;BME280;51680;49.806;18.774;2024-03-07T11:00:08;97852.94;;;3.25;92.05
41044;BME280;51680;49.806;18.774;2024-03-07T11:03:33;97847.72;;;3.28;92.01
41044;BME280;51680;49.806;18.774;2024-03-07T11:06:36;97850.28;;;3.28;91.90
41044;BME280;51680;49.806;18.774;2024-03-07T11:09:39;97851.59;;;3.14;91.65
41044;BME280;51680;49.806;18.774;2024-03-07T11:12:44;97853.88;;;3.23;92.38
41044;BME280;51680;49.806;18.774;2024-03-07T11:15:48;97845.38;;;3.19;92.71
41044;BME280;51680;49.806;18.774;2024-03-07T11:19:21;97841.59;;;3.32;92.51
41044;BME280;51680;49.806;18.774;2024-03-07T11:22:30;97841.34;;;3.41;92.11
41044;BME280;51680;49.806;18.774;2024-03-07T11:25:33;97845.06;;;3.31;92.28
41044;BME280;51680;49.806;18.774;2024-03-07T11:28:37;97834.09;;;3.23;92.76
41044;BME280;51680;49.806;18.774;2024-03-07T11:31:39;97826.38;;;3.23;92.18
41044;BME280;51680;49.806;18.774;2024-03-07T11:34:43;97840.66;;;3.35;92.11
41044;BME280;51680;49.806;18.774;2024-03-07T11:37:47;97819.94;;;3.38;91.54
41044;BME280;51680;49.806;18.774;2024-03-07T11:40:50;97807.31;;;3.29;91.05
41044;BME280;51680;49.806;18.774;2024-03-07T11:43:52;97826.59;;;3.16;91.66
41044;BME280;51680;49.806;18.774;2024-03-07T11:46:55;97829.34;;;3.10;92.07
41044;BME280;51680;49.806;18.774;2024-03-07T11:49:59;97828.31;;;3.15;92.13
41044;BME280;51680;49.806;18.774;2024-03-07T11:53:01;97839.03;;;3.00;92.55
41044;BME280;51680;49.806;18.774;2024-03-07T11:56:06;97860.31;;;2.76;94.22
41044;BME280;51680;49.806;18.774;2024-03-07T11:59:10;97842.66;;;2.95;94.08
41044;BME280;51680;49.806;18.774;2024-03-07T12:02:13;97835.50;;;3.04;93.49
41044;BME280;51680;49.806;18.774;2024-03-07T12:05:17;97834.66;;;3.04;92.95
41044;BME280;51680;49.806;18.774;2024-03-07T12:08:20;97831.19;;;3.05;93.66
41044;BME280;51680;49.806;18.774;2024-03-07T12:11:23;97835.75;;;2.95;93.57
41044;BME280;51680;49.806;18.774;2024-03-07T12:14:26;97840.66;;;3.04;93.41
41044;BME280;51680;49.806;18.774;2024-03-07T12:17:28;97836.56;;;2.65;94.13
41044;BME280;51680;49.806;18.774;2024-03-07T12:20:34;97828.66;;;2.71;95.18
41044;BME280;51680;49.806;18.774;2024-03-07T12:23:37;97825.88;;;2.79;94.61
41044;BME280;51680;49.806;18.774;2024-03-07T12:26:40;97836.72;;;2.91;94.32
41044;BME280;51680;49.806;18.774;2024-03-07T12:29:43;97818.66;;;2.91;93.66
41044;BME280;51680;49.806;18.774;2024-03-07T12:32:48;97822.59;;;3.04;92.87
41044;BME280;51680;49.806;18.774;2024-03-07T12:35:53;97826.53;;;2.87;93.49
41044;BME280;51680;49.806;18.774;2024-03-07T12:39:01;97839.69;;;3.08;94.02
41044;BME280;51680;49.806;18.774;2024-03-07T12:42:09;97853.47;;;2.75;93.37
41044;BME280;51680;49.806;18.774;2024-03-07T12:45:15;97842.53;;;2.34;95.30
41044;BME280;51680;49.806;18.774;2024-03-07T12:48:18;97846.72;;;2.38;96.39
41044;BME280;51680;49.806;18.774;2024-03-07T12:51:23;97833.19;;;2.30;96.76
41044;BME280;51680;49.806;18.774;2024-03-07T12:54:28;97835.78;;;2.28;97.03
41044;BME280;51680;49.806;18.774;2024-03-07T12:57:30;97841.66;;;2.68;96.35
41044;BME280;51680;49.806;18.774;2024-03-07T13:00:32;97827.63;;;2.78;94.84
41044;BME280;51680;49.806;18.774;2024-03-07T13:03:34;97841.13;;;2.86;93.75
41044;BME280;51680;49.806;18.774;2024-03-07T13:06:37;97824.47;;;2.99;93.59
41044;BME280;51680;49.806;18.774;2024-03-07T13:09:43;97826.13;;;3.02;93.30
41044;BME280;51680;49.806;18.774;2024-03-07T13:12:49;97828.41;;;3.12;93.05
41044;BME280;51680;49.806;18.774;2024-03-07T13:15:50;97829.19;;;2.84;93.60
41044;BME280;51680;49.806;18.774;2024-03-07T13:18:55;97824.97;;;2.49;94.35
41044;BME280;51680;49.806;18.774;2024-03-07T13:21:58;97824.84;;;2.86;93.88
41044;BME280;51680;49.806;18.774;2024-03-07T13:25:01;97835.16;;;2.86;92.96
41044;BME280;51680;49.806;18.774;2024-03-07T13:28:14;97828.94;;;2.93;93.35
41044;BME280;51680;49.806;18.774;2024-03-07T13:31:36;97827.59;;;3.10;93.10
41044;BME280;51680;49.806;18.774;2024-03-07T13:34:38;97832.50;;;3.19;92.20
41044;BME280;51680;49.806;18.774;2024-03-07T13:37:41;97835.72;;;3.27;92.19
41044;BME280;51680;49.806;18.774;2024-03-07T13:40:43;97824.34;;;3.33;91.88
41044;BME280;51680;49.806;18.774;2024-03-07T13:43:44;97825.22;;;3.33;91.50
41044;BME280;51680;49.806;18.774;2024-03-07T13:46:46;97827.72;;;3.36;90.59
41044;BME280;51680;49.806;18.774;2024-03-07T13:49:48;97833.69;;;3.37;90.88
41044;BME280;51680;49.806;18.774;2024-03-07T13:52:52;97831.94;;;3.08;91.88
41044;BME280;51680;49.806;18.774;2024-03-07T13:56:28;97835.81;;;3.23;91.49
41044;BME280;51680;49.806;18.774;2024-03-07T13:59:51;97836.94;;;3.14;91.99
41044;BME280;51680;49.806;18.774;2024-03-07T14:03:14;97840.59;;;3.07;92.34
41044;BME280;51680;49.806;18.774;2024-03-07T14:06:25;97846.00;;;2.98;92.68
41044;BME280;51680;49.806;18.774;2024-03-07T14:09:50;97845.88;;;3.01;92.92
41044;BME280;51680;49.806;18.774;2024-03-07T14:13:15;97832.63;;;2.84;93.44
41044;BME280;51680;49.806;18.774;2024-03-07T14:16:49;97838.31;;;2.95;92.48
41044;BME280;51680;49.806;18.774;2024-03-07T14:27:29;97849.22;;;2.39;94.33
41044;BME280;51680;49.806;18.774;2024-03-07T14:30:39;97828.69;;;2.38;94.86
41044;BME280;51680;49.806;18.774;2024-03-07T14:34:04;97833.50;;;2.51;94.50
41044;BME280;51680;49.806;18.774;2024-03-07T14:37:11;97824.78;;;2.57;94.65
41044;BME280;51680;49.806;18.774;2024-03-07T14:40:19;97831.28;;;2.38;94.40
41044;BME280;51680;49.806;18.774;2024-03-07T14:43:24;97816.00;;;2.62;94.71
41044;BME280;51680;49.806;18.774;2024-03-07T14:46:26;97814.66;;;2.49;94.01
41044;BME280;51680;49.806;18.774;2024-03-07T14:49:28;97811.53;;;2.70;93.90
41044;BME280;51680;49.806;18.774;2024-03-07T14:52:29;97812.94;;;2.82;93.20
41044;BME280;51680;49.806;18.774;2024-03-07T14:55:32;97813.59;;;2.88;92.55
41044;BME280;51680;49.806;18.774;2024-03-07T14:58:36;97815.13;;;2.95;92.71
41044;BME280;51680;49.806;18.774;2024-03-07T15:01:38;97820.28;;;2.95;92.57
41044;BME280;51680;49.806;18.774;2024-03-07T15:04:40;97825.13;;;3.07;92.76
41044;BME280;51680;49.806;18.774;2024-03-07T15:07:43;97845.94;;;2.68;92.87
41044;BME280;51680;49.806;18.774;2024-03-07T15:10:51;97833.13;;;2.33;94.45
41044;BME280;51680;49.806;18.774;2024-03-07T15:13:55;97820.16;;;2.34;94.59
41044;BME280;51680;49.806;18.774;2024-03-07T15:16:57;97828.09;;;2.27;95.65
41044;BME280;51680;49.806;18.774;2024-03-07T15:19:59;97820.44;;;2.25;95.46
41044;BME280;51680;49.806;18.774;2024-03-07T15:23:02;97817.81;;;2.60;94.91
41044;BME280;51680;49.806;18.774;2024-03-07T15:26:04;97822.50;;;2.45;95.32
41044;BME280;51680;49.806;18.774;2024-03-07T15:29:09;97828.78;;;2.33;96.27
41044;BME280;51680;49.806;18.774;2024-03-07T15:32:10;97837.53;;;2.28;95.80
41044;BME280;51680;49.806;18.774;2024-03-07T15:35:17;97826.13;;;2.38;96.47
41044;BME280;51680;49.806;18.774;2024-03-07T15:38:19;97828.28;;;2.54;95.24
41044;BME280;51680;49.806;18.774;2024-03-07T15:41:21;97834.25;;;2.55;96.06
41044;BME280;51680;49.806;18.774;2024-03-07T15:44:24;97835.88;;;2.59;96.26
41044;BME280;51680;49.806;18.774;2024-03-07T15:47:26;97833.47;;;2.53;95.62
41044;BME280;51680;49.806;18.774;2024-03-07T15:50:28;97841.72;;;2.65;95.95
41044;BME280;51680;49.806;18.774;2024-03-07T15:53:30;97840.72;;;2.37;96.41
41044;BME280;51680;49.806;18.774;2024-03-07T15:56:34;97827.03;;;2.67;95.72
41044;BME280;51680;49.806;18.774;2024-03-07T15:59:41;97841.00;;;2.60;95.90
41044;BME280;51680;49.806;18.774;2024-03-07T16:02:43;97837.00;;;2.81;95.07
41044;BME280;51680;49.806;18.774;2024-03-07T16:05:45;97831.50;;;2.61;95.46
41044;BME280;51680;49.806;18.774;2024-03-07T16:08:47;97844.31;;;2.64;94.79
41044;BME280;51680;49.806;18.774;2024-03-07T16:11:49;97848.28;;;2.77;94.72
41044;BME280;51680;49.806;18.774;2024-03-07T16:14:52;97838.31;;;2.95;93.69
41044;BME280;51680;49.806;18.774;2024-03-07T16:17:56;97838.97;;;3.03;93.19
41044;BME280;51680;49.806;18.774;2024-03-07T16:20:59;97843.06;;;3.10;92.30
41044;BME280;51680;49.806;18.774;2024-03-07T16:24:00;97845.66;;;3.09;91.68